Time;durP1;ratioP1;P1;durP2;ratioP2;P2;SDS_P1;SDS_P2;PMS_P1;PMS_P2;Temp;Humidity;BMP_temperature;BMP_pressure;BME280_temperature;BME280_humidity;BME280_pressure;Samples;Min_cycle;Max_cycle;Signal;HPM_P1;HPM_P2
2022/08/13 00:02:34;;;;;;;20.40;9.55;;;;;;;18.30;67.67;100393.47;6206918;23;20020;-94
2022/08/13 00:09:04;;;;;;;28.25;10.50;;;;;;;17.60;67.88;100285.28;6303063;22;20046;-94
2022/08/13 00:18:49;;;;;;;24.27;9.88;;;;;;;17.98;68.58;100345.25;6227027;23;20057;-94
2022/08/13 00:21:40;;;;;;;24.27;9.68;;;;;;;18.24;68.60;100388.47;6166517;23;20015;-94
2022/08/13 00:24:10;;;;;;;31.75;10.25;;;;;;;17.74;68.54;100320.97;6149850;23;20035;-95
2022/08/13 00:29:43;;;;;;;26.15;10.18;;;;;;;17.76;68.50;100328.94;6215940;22;21318;-95
2022/08/13 00:32:38;;;;;;;31.50;11.18;;;;;;;18.06;68.76;100387.81;6230003;22;20102;-96
2022/08/13 00:35:55;;;;;;;23.35;10.65;;;;;;;17.58;68.73;100326.31;6245444;22;20210;-94
2022/08/13 00:39:29;;;;;;;30.92;10.32;;;;;;;17.41;69.72;100306.22;6249473;23;20024;-95
2022/08/13 00:45:26;;;;;;;21.15;9.75;;;;;;;17.51;69.48;100331.53;6263072;22;20006;-94
2022/08/13 00:48:46;;;;;;;26.25;10.40;;;;;;;17.84;69.68;100384.22;6211912;22;20034;-95
2022/08/13 00:52:30;;;;;;;28.73;10.57;;;;;;;17.86;69.46;100372.03;6245455;22;20023;-95
2022/08/13 00:55:27;;;;;;;21.75;9.85;;;;;;;17.24;69.75;100271.22;6213080;23;20031;-95
2022/08/13 00:58:22;;;;;;;22.75;11.00;;;;;;;17.89;69.95;100374.91;6151037;23;20012;-95
2022/08/13 01:06:32;;;;;;;28.05;11.07;;;;;;;17.49;69.67;100320.00;6199536;23;20028;-94
2022/08/13 01:12:27;;;;;;;19.88;10.77;;;;;;;17.58;70.07;100326.31;6223443;23;20024;-94
2022/08/13 01:15:23;;;;;;;27.63;10.63;;;;;;;17.48;69.81;100315.63;6222584;23;20522;-94
2022/08/13 01:18:13;;;;;;;22.00;10.80;;;;;;;17.47;69.29;100302.13;6204304;22;20023;-94
2022/08/13 01:21:08;;;;;;;;;;;;;;;17.82;69.46;100367.16;6214596;22;20025;-94
2022/08/13 01:23:39;;;;;;;23.95;10.52;;;;;;;17.57;69.42;100332.16;6249310;22;19919;-94
2022/08/13 01:26:32;;;;;;;27.65;10.93;;;;;;;17.14;69.61;100266.88;6237829;22;20020;-94
2022/08/13 01:45:40;;;;;;;19.70;9.52;;;;;;;17.60;70.05;100340.56;6305548;22;20066;-94
2022/08/13 01:52:04;;;;;;;34.72;10.45;;;;;;;17.67;70.34;100361.38;6138218;23;20037;-94
2022/08/13 01:54:57;;;;;;;29.70;9.30;;;;;;;17.66;70.22;100359.75;6108141;23;20004;-94
2022/08/13 01:57:33;;;;;;;21.90;9.35;;;;;;;16.93;69.89;100238.41;6174013;22;20023;-95
2022/08/13 02:04:26;;;;;;;24.15;10.05;;;;;;;17.48;70.50;100359.88;6312409;22;20045;-94
2022/08/13 02:07:25;;;;;;;24.83;9.35;;;;;;;17.46;70.43;100364.91;6248204;22;20006;-96
2022/08/13 02:13:47;;;;;;;28.33;9.55;;;;;;;17.47;70.35;100354.66;6223957;22;20008;-96
2022/08/13 02:23:14;;;;;;;19.77;9.00;;;;;;;17.56;70.66;100345.16;6209965;22;20011;-95
2022/08/13 02:26:05;;;;;;;18.65;9.48;;;;;;;17.20;70.30;100295.94;6214834;22;20111;-95
2022/08/13 02:28:41;;;;;;;24.35;9.73;;;;;;;17.08;70.19;100282.81;6119974;23;20025;-95
2022/08/13 02:31:12;;;;;;;18.60;9.25;;;;;;;17.00;70.43;100260.78;6142892;22;20055;-96
2022/08/13 02:37:38;;;;;;;23.92;9.00;;;;;;;17.24;70.54;100305.19;6290884;22;20031;-95
2022/08/13 02:44:25;;;;;;;21.50;8.57;;;;;;;17.08;69.98;100268.22;6169897;23;20052;-94
2022/08/13 02:47:57;;;;;;;13.52;8.90;;;;;;;17.69;70.16;100351.59;6118309;23;20026;-95
2022/08/13 02:53:17;;;;;;;18.10;8.85;;;;;;;17.68;70.62;100346.38;6319503;22;20027;-95
2022/08/13 02:59:57;;;;;;;17.75;9.20;;;;;;;17.46;70.45;100303.28;6201636;23;20482;-96
2022/08/13 03:02:44;;;;;;;29.27;9.25;;;;;;;17.96;70.36;100375.19;6180082;22;20049;-94
2022/08/13 03:08:52;;;;;;;18.92;8.82;;;;;;;17.75;70.50;100321.78;6197960;23;19907;-95
2022/08/13 03:16:11;;;;;;;19.38;9.43;;;;;;;18.31;70.24;100366.63;6201417;23;20025;-94
2022/08/13 03:19:04;;;;;;;21.13;9.82;;;;;;;18.26;69.91;100352.97;6228266;23;20017;-94
2022/08/13 03:21:47;;;;;;;25.48;9.60;;;;;;;18.23;69.81;100335.09;6128625;23;20028;-95
2022/08/13 03:25:04;;;;;;;18.92;9.13;;;;;;;18.53;70.65;100371.75;6119500;23;20025;-95
2022/08/13 03:28:12;;;;;;;27.17;9.80;;;;;;;18.00;70.15;100275.72;6121000;23;20035;-95
2022/08/13 03:30:46;;;;;;;23.83;10.15;;;;;;;18.18;69.89;100295.72;6177165;22;20476;-95
2022/08/13 03:33:39;;;;;;;18.48;10.05;;;;;;;18.77;70.03;100370.25;6203882;23;20103;-94
2022/08/13 03:44:10;;;;;;;23.42;10.68;;;;;;;19.07;69.44;100370.09;6214686;23;20035;-96
2022/08/13 03:49:53;;;;;;;35.00;10.75;;;;;;;18.63;67.37;100267.25;6240197;22;20024;-95
2022/08/13 03:52:26;;;;;;;40.45;11.77;;;;;;;18.79;66.85;100293.16;6200225;23;20017;-96
2022/08/13 03:55:58;;;;;;;27.05;11.57;;;;;;;18.93;66.84;100290.06;6240476;22;20051;-95
2022/08/13 03:59:15;;;;;;;22.40;11.02;;;;;;;19.58;66.44;100373.34;6224136;22;21145;-95
2022/08/13 04:02:28;;;;;;;21.10;10.27;;;;;;;19.69;67.07;100371.75;6258386;23;20031;-96
2022/08/13 04:08:46;;;;;;;28.42;10.13;;;;;;;19.59;65.08;100322.25;6229704;23;20048;-96
2022/08/13 04:11:21;;;;;;;17.75;8.63;;;;;;;19.60;63.82;100307.22;6126621;23;20027;-96
2022/08/13 04:14:10;;;;;;;19.23;9.25;;;;;;;20.02;62.53;100352.13;6178284;23;20021;-96
2022/08/13 04:16:39;;;;;;;17.98;8.48;;;;;;;19.62;62.80;100279.94;6126444;23;20020;-95
2022/08/13 04:23:04;;;;;;;21.40;7.85;;;;;;;20.03;58.54;100302.97;6251942;23;20362;-96
2022/08/13 04:26:47;;;;;;;22.63;8.60;;;;;;;20.52;57.42;100361.13;6133022;23;20032;-95
2022/08/13 04:29:24;;;;;;;23.42;8.80;;;;;;;20.25;58.19;100304.41;6138875;23;20006;-95
2022/08/13 04:31:54;;;;;;;19.83;8.93;;;;;;;20.06;57.67;100258.66;6070825;23;20022;-96
2022/08/13 05:00:44;;;;;;;;;;;;;;;21.42;56.63;100344.78;6240512;22;20030;-95
2022/08/13 06:13:20;;;;;;;18.27;6.55;;;;;;;22.10;54.69;100293.41;6324346;22;20033;-92
2022/08/13 06:20:05;;;;;;;13.60;6.18;;;;;;;22.68;54.55;100354.66;6205324;22;20056;-92
2022/08/13 06:23:26;;;;;;;23.35;6.35;;;;;;;22.74;54.71;100347.59;6237796;22;20024;-90
2022/08/13 06:26:50;;;;;;;18.73;6.85;;;;;;;22.78;53.31;100353.25;6262349;22;20024;-91
2022/08/13 06:34:17;;;;;;;8.18;3.70;;;;;;;22.75;51.24;100324.94;6234314;22;20088;-93
2022/08/13 06:37:11;;;;;;;10.57;4.05;;;;;;;23.05;50.78;100352.19;6232709;23;20031;-89
2022/08/13 06:40:04;;;;;;;7.82;3.78;;;;;;;23.10;49.47;100356.63;6210129;23;20008;-89
2022/08/13 06:46:28;;;;;;;15.75;5.30;;;;;;;23.29;50.00;100366.94;6202168;23;20080;-96
2022/08/13 06:49:38;;;;;;;30.88;6.60;;;;;;;23.23;50.77;100340.53;6229770;23;20027;-91
2022/08/13 06:52:08;;;;;;;13.85;5.28;;;;;;;23.18;50.65;100327.72;6239516;23;20024;-90
2022/08/13 06:54:59;;;;;;;19.52;5.70;;;;;;;23.34;50.52;100324.75;6226765;23;20079;-93
2022/08/13 07:01:22;;;;;;;17.98;5.40;;;;;;;23.58;50.08;100335.50;6212308;22;20103;-93
2022/08/13 07:08:21;;;;;;;44.47;7.82;;;;;;;23.40;48.12;100290.56;6182829;23;20056;-95
2022/08/13 07:11:53;;;;;;;13.57;5.03;;;;;;;23.89;46.70;100351.13;6272014;22;20046;-96
2022/08/13 07:21:30;;;;;;;15.18;4.70;;;;;;;23.82;47.74;100334.25;6287365;22;20032;-92
2022/08/13 07:24:04;;;;;;;15.02;4.13;;;;;;;23.86;47.54;100326.72;6200679;22;20515;-91
2022/08/13 07:26:33;;;;;;;23.08;4.80;;;;;;;24.12;47.86;100350.22;6226154;22;20098;-90
2022/08/13 07:29:07;;;;;;;26.92;5.28;;;;;;;23.98;49.12;100319.31;6200414;22;20015;-92
2022/08/13 07:32:32;;;;;;;66.45;7.53;;;;;;;24.23;47.76;100350.34;6226009;22;20012;-91
2022/08/13 07:35:15;;;;;;;9.50;4.10;;;;;;;24.08;48.58;100318.66;6203999;22;20465;-93
2022/08/13 07:38:00;;;;;;;19.70;5.45;;;;;;;23.77;45.52;100281.53;6217776;22;20069;-94
2022/08/13 07:41:10;;;;;;;;;;;;;;;24.25;45.22;100348.78;6251588;22;20023;-92
2022/08/13 07:43:42;;;;;;;13.65;3.95;;;;;;;23.91;42.85;100312.44;6264751;22;19921;-92
2022/08/13 07:46:21;;;;;;;9.38;3.55;;;;;;;23.70;42.66;100266.69;6266290;22;20053;-90
2022/08/13 07:49:37;;;;;;;6.32;4.05;;;;;;;24.29;42.47;100344.03;6238359;22;20106;-90
2022/08/13 07:52:14;;;;;;;15.25;4.53;;;;;;;24.28;42.47;100327.66;6236747;22;20064;-90
2022/08/13 07:54:44;;;;;;;24.40;3.75;;;;;;;24.27;42.84;100315.69;6266822;22;20067;-94
2022/08/13 07:57:31;;;;;;;24.55;4.30;;;;;;;23.94;43.38;100249.44;6318829;22;20011;-89
2022/08/13 08:00:21;;;;;;;23.30;5.07;;;;;;;24.39;43.28;100311.81;6238304;22;20015;-90
2022/08/13 08:03:45;;;;;;;12.32;3.97;;;;;;;24.15;43.25;100265.66;6180123;23;20044;-92
2022/08/13 08:13:00;;;;;;;18.55;4.30;;;;;;;24.39;42.81;100284.66;6267959;22;20457;-94
2022/08/13 08:16:34;;;;;;;13.30;4.03;;;;;;;24.74;44.24;100330.19;6207810;22;20000;-95
2022/08/13 08:20:32;;;;;;;16.65;4.60;;;;;;;24.87;44.42;100320.34;6198196;22;20011;-94
2022/08/13 08:22:59;;;;;;;7.88;3.78;;;;;;;24.54;41.73;100276.47;6230835;22;20023;-94
2022/08/13 08:28:19;;;;;;;10.18;3.75;;;;;;;24.55;43.27;100267.69;6228999;22;20341;-90
2022/08/13 08:30:48;;;;;;;10.05;3.80;;;;;;;25.00;45.43;100323.63;6226774;22;20023;-90
2022/08/13 08:33:15;;;;;;;16.85;4.90;;;;;;;25.09;44.33;100324.09;6205837;22;20065;-89
2022/08/13 08:35:43;;;;;;;12.75;3.80;;;;;;;24.94;42.93;100286.81;6237578;22;20096;-93
2022/08/13 08:45:52;;;;;;;19.30;4.50;;;;;;;25.13;42.07;100312.97;6254711;22;20012;-94
2022/08/13 08:48:19;;;;;;;36.58;7.38;;;;;;;24.87;42.41;100255.16;6285545;22;20098;-90
2022/08/13 08:50:52;;;;;;;28.00;5.60;;;;;;;25.08;41.58;100277.72;6228226;23;20028;-91
2022/08/13 08:54:23;;;;;;;28.70;6.95;;;;;;;25.34;41.15;100307.53;6202646;23;20020;-92
2022/08/13 08:57:46;;;;;;;36.13;6.40;;;;;;;25.46;43.29;100310.03;6176872;23;20017;-94
2022/08/13 09:00:18;;;;;;;22.80;10.13;;;;;;;24.99;42.06;100213.72;6171053;23;20447;-93
2022/08/13 09:06:21;;;;;;;16.60;5.15;;;;;;;25.73;41.43;100307.00;6136310;23;20364;-93
2022/08/13 09:09:43;;;;;;;16.63;7.25;;;;;;;25.29;41.03;100221.13;6159365;23;20044;-92
2022/08/13 09:12:16;;;;;;;40.28;6.13;;;;;;;25.38;40.22;100221.59;6161217;23;20021;-93
2022/08/13 09:14:44;;;;;;;25.42;5.63;;;;;;;25.63;40.94;100252.53;6114203;23;20029;-92
2022/08/13 09:17:17;;;;;;;12.77;4.70;;;;;;;25.45;38.53;100244.00;6113295;23;20013;-95
2022/08/13 09:19:47;;;;;;;22.30;5.90;;;;;;;25.41;40.11;100237.59;6093728;23;20024;-94
2022/08/13 09:23:21;;;;;;;17.13;6.25;;;;;;;25.85;41.36;100289.84;6138631;23;20021;-92
2022/08/13 09:34:29;;;;;;;61.40;6.53;;;;;;;26.12;42.71;100290.38;6051686;23;20362;-92
2022/08/13 09:37:32;;;;;;;42.13;6.38;;;;;;;26.14;40.53;100293.59;6049975;23;20031;-93
2022/08/13 09:45:07;;;;;;;28.25;6.20;;;;;;;25.98;41.75;100235.06;6046729;23;20110;-93
2022/08/13 09:48:37;;;;;;;94.55;17.27;;;;;;;26.40;41.23;100286.06;5991491;23;20031;-93
2022/08/13 09:57:20;;;;;;;24.13;5.43;;;;;;;26.01;40.04;100186.66;6164900;23;20119;-90
2022/08/13 10:00:14;;;;;;;26.88;7.53;;;;;;;26.52;40.24;100262.47;6140326;23;20044;-93
2022/08/13 10:02:44;;;;;;;24.33;6.70;;;;;;;26.48;41.67;100245.63;6140927;23;20107;-92
2022/08/13 10:05:12;;;;;;;19.30;7.13;;;;;;;26.75;42.03;100260.06;6140772;23;20025;-95
2022/08/13 10:07:46;;;;;;;22.48;4.70;;;;;;;26.43;38.16;100190.72;6140548;23;20021;-93
2022/08/13 10:10:15;;;;;;;25.27;6.50;;;;;;;26.61;39.83;100224.41;6140271;23;20017;-90
2022/08/13 10:12:42;;;;;;;15.10;5.80;;;;;;;26.58;38.82;100199.97;6163612;23;20028;-93
2022/08/13 10:15:12;;;;;;;12.57;4.35;;;;;;;27.00;38.41;100264.91;6109467;23;20017;-92
2022/08/13 10:20:58;;;;;;;12.10;6.43;;;;;;;26.89;40.47;100243.25;6245714;23;20078;-90
2022/08/13 10:23:25;;;;;;;7.75;6.00;;;;;;;26.69;39.03;100202.78;6247372;23;20051;-94
2022/08/13 10:26:02;;;;;;;51.17;6.57;;;;;;;26.57;39.99;100184.34;6199012;23;20476;-92
2022/08/13 10:29:33;;;;;;;31.52;6.70;;;;;;;27.16;40.14;100259.69;6200798;23;20016;-89
2022/08/13 10:32:37;;;;;;;20.33;6.05;;;;;;;27.22;40.73;100266.50;6201123;23;20095;-90
2022/08/13 10:40:45;;;;;;;15.00;5.18;;;;;;;26.97;42.92;100254.47;6187298;23;20070;-90
2022/08/13 10:43:11;;;;;;;80.43;8.38;;;;;;;26.53;42.93;100208.78;6164890;23;20111;-92
2022/08/13 10:45:46;;;;;;;36.55;5.93;;;;;;;26.53;42.72;100213.59;6157041;22;20035;-91
2022/08/13 10:49:14;;;;;;;14.95;4.75;;;;;;;26.78;42.64;100259.28;6252107;22;20023;-88
2022/08/13 10:51:41;;;;;;;11.63;5.05;;;;;;;26.48;41.33;100229.59;6252434;22;20026;-88
2022/08/13 10:54:07;;;;;;;;;;;;;;;26.81;42.14;100261.28;6225178;22;20458;-89
2022/08/13 10:56:33;;;;;;;;;;;;;;;26.92;40.98;100252.84;6244516;23;19998;-86
2022/08/13 10:59:02;;;;;;;13.60;5.57;;;;;;;26.56;38.30;100179.16;6195025;23;19922;-89
2022/08/13 11:01:34;;;;;;;11.45;5.45;;;;;;;26.70;40.45;100171.53;6195079;23;20043;-89
2022/08/13 11:04:31;;;;;;;9.68;5.57;;;;;;;27.33;38.82;100253.25;6213660;23;20107;-88
2022/08/13 11:06:58;;;;;;;10.68;5.00;;;;;;;27.32;39.11;100223.56;6165187;23;20028;-88
2022/08/13 11:09:37;;;;;;;9.77;4.95;;;;;;;27.33;40.26;100196.28;6190015;23;20023;-91
2022/08/13 11:12:55;;;;;;;11.45;5.35;;;;;;;27.72;38.08;100240.31;6216057;23;20016;-92
2022/08/13 11:15:23;;;;;;;11.40;5.00;;;;;;;27.41;38.40;100195.84;6165827;23;20020;-90
2022/08/13 11:17:56;;;;;;;10.70;4.93;;;;;;;27.71;39.24;100233.88;6165984;23;20076;-91
2022/08/13 11:20:40;;;;;;;11.18;5.22;;;;;;;27.61;38.30;100223.47;6216985;23;20038;-90
2022/08/13 11:23:07;;;;;;;10.68;4.88;;;;;;;27.46;37.91;100188.22;6179971;23;20451;-90
2022/08/13 11:26:27;;;;;;;16.25;5.07;;;;;;;27.69;37.67;100227.88;6216594;23;20021;-90
2022/08/13 11:28:53;;;;;;;18.10;5.38;;;;;;;27.46;38.34;100177.00;6167330;23;20439;-92
2022/08/13 11:31:40;;;;;;;10.55;5.15;;;;;;;27.63;37.99;100176.91;6167389;23;20352;-90
2022/08/13 11:34:16;;;;;;;17.83;5.40;;;;;;;28.01;38.57;100227.75;6130993;23;20152;-88
2022/08/13 11:36:58;;;;;;;17.35;5.75;;;;;;;27.89;38.14;100174.03;6131873;23;20029;-91
2022/08/13 11:39:52;;;;;;;22.77;5.00;;;;;;;28.28;36.92;100213.13;6156470;23;20107;-91
2022/08/13 11:42:18;;;;;;;8.23;4.90;;;;;;;28.31;35.65;100201.84;6107509;23;20024;-92
2022/08/13 11:45:10;;;;;;;7.90;4.72;;;;;;;28.32;38.16;100214.69;6083653;23;20032;-91
2022/08/13 11:47:51;;;;;;;11.60;5.05;;;;;;;27.88;37.43;100136.66;6157309;23;20081;-90
2022/08/13 11:50:18;;;;;;;12.55;4.90;;;;;;;28.08;36.84;100159.44;6133825;23;20017;-94
2022/08/13 11:52:44;;;;;;;11.30;5.80;;;;;;;28.11;36.64;100164.22;6155577;23;20053;-92
2022/08/13 11:55:13;;;;;;;;;;;;;;;28.52;36.34;100205.75;6106452;23;20108;-92
2022/08/13 11:57:43;;;;;;;16.10;5.15;;;;;;;28.55;37.21;100207.75;6157403;23;19916;-91
2022/08/13 12:00:10;;;;;;;21.08;5.03;;;;;;;28.55;36.50;100179.59;6137154;23;20017;-91
2022/08/13 12:02:42;;;;;;;11.77;4.70;;;;;;;28.55;34.28;100180.41;6175468;23;20024;-92
2022/08/13 12:05:12;;;;;;;11.75;5.25;;;;;;;28.53;34.29;100153.91;6190536;23;20016;-94
2022/08/13 12:07:42;;;;;;;11.48;4.90;;;;;;;28.80;34.48;100162.47;6191379;23;20012;-93
2022/08/13 12:10:10;;;;;;;22.63;5.85;;;;;;;28.91;34.01;100170.84;6175163;22;20008;-92
2022/08/13 12:13:01;;;;;;;28.17;6.20;;;;;;;29.11;33.12;100183.13;6200602;22;20046;-94
2022/08/13 12:15:45;;;;;;;37.53;6.93;;;;;;;29.17;33.59;100181.47;6225722;22;20106;-93
2022/08/13 12:18:13;;;;;;;17.35;5.60;;;;;;;28.88;34.58;100155.59;6251088;22;20019;-91
2022/08/13 12:20:49;;;;;;;17.17;5.32;;;;;;;28.81;35.96;100152.84;6200397;22;20154;-93
2022/08/13 12:23:17;;;;;;;12.95;5.05;;;;;;;28.91;33.32;100163.19;6250373;22;20020;-92
2022/08/13 12:25:43;;;;;;;29.02;6.18;;;;;;;28.93;33.02;100155.13;6224898;22;20089;-92
2022/08/13 12:28:26;;;;;;;21.63;6.05;;;;;;;28.70;33.39;100121.97;6225125;22;20020;-92
2022/08/13 12:30:57;;;;;;;24.88;5.65;;;;;;;29.08;36.04;100166.28;6278120;22;20442;-90
2022/08/13 12:33:28;;;;;;;15.68;5.10;;;;;;;28.94;34.97;100141.84;6188780;23;20051;-92
2022/08/13 12:35:55;;;;;;;13.05;4.80;;;;;;;28.95;34.84;100135.81;6141200;23;20027;-93
2022/08/13 12:38:22;;;;;;;11.95;4.88;;;;;;;28.97;33.78;100132.56;6141856;23;20047;-92
2022/08/13 12:40:48;;;;;;;;;;;;;;;29.33;34.21;100165.97;6142424;23;20078;-93
2022/08/13 12:43:15;;;;;;;12.82;5.32;;;;;;;29.39;32.85;100164.28;6141211;23;20361;-92
2022/08/13 12:45:45;;;;;;;17.88;5.25;;;;;;;29.15;32.84;100116.31;6152242;23;20024;-92
2022/08/13 12:48:17;;;;;;;22.55;5.45;;;;;;;29.18;33.52;100121.09;6173792;23;20016;-93
2022/08/13 12:50:46;;;;;;;18.67;5.70;;;;;;;29.23;32.35;100134.69;6223884;23;20043;-93
2022/08/13 12:53:14;;;;;;;40.30;7.38;;;;;;;29.35;32.99;100138.19;6198119;23;20020;-91
2022/08/13 12:56:32;;;;;;;19.50;5.88;;;;;;;29.48;33.68;100147.69;6198059;23;20402;-92
2022/08/13 12:59:02;;;;;;;57.85;8.65;;;;;;;29.21;33.05;100113.81;6221683;23;20039;-92
2022/08/13 13:01:34;;;;;;;25.65;6.55;;;;;;;28.98;33.93;100075.06;6197138;23;20020;-93
2022/08/13 13:04:59;;;;;;;16.02;5.95;;;;;;;29.58;34.43;100140.31;6195159;23;20027;-92
2022/08/13 13:08:30;;;;;;;13.38;5.65;;;;;;;29.61;32.87;100143.13;6196445;23;20027;-93
2022/08/13 13:11:25;;;;;;;13.75;5.68;;;;;;;29.57;33.29;100142.34;6196113;23;20023;-92
2022/08/13 13:19:06;;;;;;;19.15;5.88;;;;;;;29.46;34.48;100130.41;6255498;22;20016;-94
2022/08/13 13:21:34;;;;;;;24.20;6.50;;;;;;;29.38;35.18;100104.34;6218309;22;20114;-94
2022/08/13 13:24:21;;;;;;;22.33;6.55;;;;;;;29.45;35.67;100137.25;6285340;22;20016;-93
2022/08/13 13:27:37;;;;;;;25.83;8.20;;;;;;;29.45;38.01;100140.06;6103876;23;20018;-94
2022/08/13 13:30:08;;;;;;;36.70;8.82;;;;;;;29.01;36.46;100088.31;6076184;23;20507;-94
2022/08/13 13:32:50;;;;;;;18.05;9.35;;;;;;;28.93;36.45;100081.94;6098969;23;20104;-90
2022/08/13 13:35:16;;;;;;;16.00;6.00;;;;;;;29.20;35.16;100115.81;6101154;23;20582;-91
2022/08/13 13:37:52;;;;;;;;;;;;;;;29.30;34.89;100133.81;6101751;23;20057;-91
2022/08/13 13:40:19;;;;;;;13.55;5.90;;;;;;;29.23;35.29;100100.09;6054673;23;19917;-89
2022/08/13 13:42:46;;;;;;;24.45;5.47;;;;;;;29.47;34.83;100120.72;6129673;23;20025;-92
2022/08/13 13:45:12;;;;;;;17.50;7.00;;;;;;;29.14;36.40;100082.91;6196973;22;20055;-93
2022/08/13 13:47:41;;;;;;;31.98;7.55;;;;;;;29.40;37.17;100109.53;6197283;23;20519;-91
2022/08/13 13:50:22;;;;;;;9.68;5.57;;;;;;;29.53;35.68;100121.84;6222582;23;20024;-92
2022/08/13 13:52:49;;;;;;;44.83;5.93;;;;;;;29.34;35.41;100102.78;6222168;23;20095;-92
2022/08/13 13:55:19;;;;;;;11.60;5.28;;;;;;;29.40;35.44;100126.44;6221292;23;20020;-93
2022/08/13 13:57:54;;;;;;;11.73;5.22;;;;;;;29.09;34.54;100083.41;6195692;23;20047;-92
2022/08/13 14:00:22;;;;;;;12.40;5.43;;;;;;;29.29;35.33;100108.91;6220617;23;20012;-93
2022/08/13 14:02:52;;;;;;;8.57;5.00;;;;;;;29.24;34.04;100107.34;6195170;23;20454;-93
2022/08/13 14:05:32;;;;;;;24.65;5.53;;;;;;;29.10;35.86;100097.03;6246220;23;20040;-92
2022/08/13 14:08:02;;;;;;;18.42;6.35;;;;;;;29.17;37.23;100096.97;6196063;23;20347;-90
2022/08/13 14:10:54;;;;;;;11.40;6.75;;;;;;;29.13;34.49;100098.22;6250571;23;20023;-91
2022/08/13 14:13:20;;;;;;;20.30;5.65;;;;;;;29.10;35.37;100097.03;6195836;23;20016;-91
2022/08/13 14:15:59;;;;;;;21.52;6.22;;;;;;;29.00;37.26;100087.50;6196459;23;20020;-91
2022/08/13 14:18:28;;;;;;;15.55;8.00;;;;;;;28.77;34.70;100067.63;6220449;23;20070;-91
2022/08/13 14:21:21;;;;;;;23.70;9.75;;;;;;;29.00;35.14;100103.59;6221744;23;20022;-91
2022/08/13 14:23:49;;;;;;;18.13;6.97;;;;;;;28.88;35.33;100093.66;6197823;23;20016;-90
2022/08/13 14:26:22;;;;;;;37.63;7.15;;;;;;;28.76;35.65;100057.59;6248133;23;20026;-91
2022/08/13 14:28:50;;;;;;;14.32;6.07;;;;;;;28.95;37.46;100073.88;6196890;23;20012;-91
2022/08/13 14:31:20;;;;;;;11.60;5.68;;;;;;;29.12;37.29;100093.81;6196812;23;20054;-91
2022/08/13 14:33:48;;;;;;;17.70;6.35;;;;;;;29.05;35.59;100074.19;6222560;23;20457;-90
2022/08/13 14:39:04;;;;;;;38.17;6.70;;;;;;;29.22;33.96;100092.88;6249429;23;20103;-90
2022/08/13 14:41:47;;;;;;;14.90;6.07;;;;;;;29.09;33.21;100080.59;6247530;23;20099;-91
2022/08/13 14:44:13;;;;;;;20.48;6.50;;;;;;;29.10;34.86;100068.88;6226108;22;20012;-92
2022/08/13 14:46:42;;;;;;;;;;;;;;;29.22;36.64;100088.03;6202066;22;20019;-92
2022/08/13 14:49:10;;;;;;;27.55;7.07;;;;;;;29.06;33.79;100039.97;6228118;22;19937;-92
2022/08/13 14:51:36;;;;;;;13.35;5.65;;;;;;;29.19;32.65;100059.94;6203373;22;20077;-92
2022/08/13 14:54:07;;;;;;;15.90;7.03;;;;;;;29.32;34.13;100077.88;6252240;22;20015;-92
2022/08/13 14:56:37;;;;;;;29.50;6.82;;;;;;;29.00;33.66;100031.19;6199289;22;20020;-93
2022/08/13 14:59:16;;;;;;;21.77;5.88;;;;;;;29.07;33.29;100046.41;6177307;22;20035;-91
2022/08/13 15:01:47;;;;;;;18.80;5.93;;;;;;;29.31;33.10;100076.28;6202009;22;20019;-91
2022/08/13 15:04:14;;;;;;;17.80;5.63;;;;;;;29.38;34.98;100072.56;6228973;22;20027;-91
2022/08/13 15:06:40;;;;;;;25.08;6.43;;;;;;;29.16;36.05;100043.88;6204187;22;20554;-92
2022/08/13 15:09:07;;;;;;;14.20;5.93;;;;;;;29.17;35.90;100071.63;6203220;22;20020;-91
2022/08/13 15:11:34;;;;;;;12.40;6.68;;;;;;;29.03;35.90;100069.78;6177270;22;20016;-92
2022/08/13 15:14:03;;;;;;;34.92;8.05;;;;;;;28.59;37.68;100033.28;6228210;22;20032;-92
2022/08/13 15:16:30;;;;;;;67.57;9.07;;;;;;;28.52;38.02;100062.28;6201834;22;20051;-92
2022/08/13 15:18:57;;;;;;;31.85;8.45;;;;;;;28.42;38.45;100063.19;6226990;22;20019;-92
2022/08/13 15:21:32;;;;;;;28.20;9.10;;;;;;;28.20;39.41;100068.19;6201087;22;20075;-92
2022/08/13 15:23:58;;;;;;;19.55;7.95;;;;;;;28.01;40.36;100047.03;6226288;22;20141;-90
2022/08/13 15:26:25;;;;;;;21.50;7.63;;;;;;;27.80;39.26;100025.53;6201850;22;20015;-91
2022/08/13 15:29:03;;;;;;;44.03;9.57;;;;;;;27.96;39.22;100045.50;6226171;22;20023;-90
2022/08/13 15:31:31;;;;;;;48.40;9.32;;;;;;;28.13;39.54;100069.03;6201932;22;20022;-91
2022/08/13 15:34:03;;;;;;;16.20;7.45;;;;;;;28.06;37.67;100060.66;6201653;22;20023;-89
2022/08/13 15:36:54;;;;;;;12.38;7.38;;;;;;;28.22;37.58;100077.81;6228419;22;20019;-91
2022/08/13 15:39:25;;;;;;;16.88;8.52;;;;;;;28.06;37.60;100053.03;6203238;22;20165;-91
2022/08/13 15:42:10;;;;;;;18.70;7.25;;;;;;;28.00;38.08;100062.31;6228287;22;20047;-91
2022/08/13 15:44:37;;;;;;;15.70;9.10;;;;;;;27.59;38.45;100027.25;6249880;23;20030;-92
2022/08/13 15:47:04;;;;;;;22.33;8.45;;;;;;;27.52;38.83;100054.63;6200067;23;20020;-93
2022/08/13 15:49:36;;;;;;;17.13;6.65;;;;;;;27.46;38.32;100059.84;6225530;23;20612;-91
2022/08/13 15:52:06;;;;;;;9.95;6.18;;;;;;;27.01;39.31;100008.31;6197903;23;20020;-92
2022/08/13 15:54:32;;;;;;;11.00;6.20;;;;;;;27.08;39.31;100053.97;6197844;23;20446;-91
2022/08/13 15:57:06;;;;;;;10.70;7.13;;;;;;;26.76;39.42;100022.47;6223261;22;20023;-90
2022/08/13 15:59:33;;;;;;;17.52;8.07;;;;;;;26.92;39.47;100074.09;6226812;22;20019;-90
2022/08/13 16:02:00;;;;;;;15.82;7.65;;;;;;;26.81;41.25;100076.13;6200996;22;20023;-90
2022/08/13 16:04:32;;;;;;;16.58;8.38;;;;;;;26.67;41.10;100068.53;6201805;22;20153;-90
2022/08/13 16:07:02;;;;;;;16.95;7.90;;;;;;;26.47;41.09;100062.56;6250985;22;20016;-90
2022/08/13 16:09:28;;;;;;;16.23;8.55;;;;;;;26.31;41.44;100059.34;6201118;22;20023;-91
2022/08/13 16:11:55;;;;;;;20.60;10.25;;;;;;;26.05;41.82;100029.75;6251642;22;20011;-91
2022/08/13 16:14:23;;;;;;;20.92;10.57;;;;;;;26.27;43.51;100081.00;6200982;22;20102;-90
2022/08/13 16:16:51;;;;;;;;;;;;;;;26.15;42.25;100073.78;6251359;22;20086;-89
2022/08/13 16:19:19;;;;;;;25.98;9.38;;;;;;;25.93;41.21;100053.38;6200366;22;19915;-91
2022/08/13 16:21:46;;;;;;;20.52;10.35;;;;;;;25.86;41.51;100058.97;6200902;22;20012;-91
2022/08/13 16:24:12;;;;;;;25.30;11.23;;;;;;;25.74;42.10;100053.72;6228052;22;20403;-90
2022/08/13 16:26:39;;;;;;;27.27;11.70;;;;;;;25.62;42.55;100048.50;6227822;22;20016;-90
2022/08/13 16:29:05;;;;;;;31.40;10.85;;;;;;;25.35;43.12;100017.25;6228389;22;20020;-92
2022/08/13 16:31:33;;;;;;;28.73;11.30;;;;;;;25.38;42.56;100024.84;6202570;22;20085;-91
2022/08/13 16:34:26;;;;;;;30.75;12.05;;;;;;;25.60;42.04;100071.31;6252425;22;20066;-91
2022/08/13 16:37:25;;;;;;;33.20;12.75;;;;;;;25.33;42.64;100045.66;6187598;22;20559;-92
2022/08/13 16:39:51;;;;;;;30.90;11.20;;;;;;;25.33;43.53;100056.84;6202703;22;20011;-89
2022/08/13 16:42:18;;;;;;;23.73;10.40;;;;;;;25.19;43.68;100059.56;6227518;22;20047;-91
2022/08/13 16:44:44;;;;;;;26.40;9.88;;;;;;;25.25;44.32;100081.19;6202122;22;20465;-94
2022/08/13 16:47:13;;;;;;;23.55;10.35;;;;;;;25.00;45.91;100064.28;6203163;22;20499;-91
2022/08/13 16:49:42;;;;;;;39.65;11.55;;;;;;;25.01;46.52;100087.44;6201659;22;20018;-90
2022/08/13 16:52:25;;;;;;;25.27;10.45;;;;;;;24.36;46.67;100013.53;6225930;22;20165;-91
2022/08/13 16:55:20;;;;;;;31.25;11.15;;;;;;;24.79;46.99;100100.50;6252204;22;20532;-91
2022/08/13 16:57:59;;;;;;;31.50;10.18;;;;;;;24.71;48.23;100096.88;6204316;22;20473;-90
2022/08/13 17:00:26;;;;;;;34.60;10.15;;;;;;;24.65;47.07;100100.44;6226150;22;20022;-91
2022/08/13 17:11:17;;;;;;;31.08;9.65;;;;;;;24.34;46.49;100111.75;6228346;22;20407;-91
2022/08/13 17:13:44;;;;;;;33.58;9.80;;;;;;;24.10;46.85;100084.41;6201842;22;20015;-90
2022/08/13 17:16:12;;;;;;;32.15;9.65;;;;;;;24.19;47.41;100112.03;6226806;22;20019;-94